Time;durP1;ratioP1;P1;durP2;ratioP2;P2;SDS_P1;SDS_P2;PMS_P1;PMS_P2;Temp;Humidity;BMP_temperature;BMP_pressure;BME280_temperature;BME280_humidity;BME280_pressure;Samples;Min_cycle;Max_cycle;Signal;HPM_P1;HPM_P2
2023/03/02 00:03:25;;;;;;;11.23;5.85;;;0.90;99.90;;;;;;7339408;32;20127;-55
2023/03/02 00:07:31;;;;;;;7.78;4.60;;;0.70;99.90;;;;;;7348036;32;20183;-55
2023/03/02 00:11:35;;;;;;;11.10;5.75;;;0.60;99.90;;;;;;7345293;32;20136;-56
2023/03/02 00:15:37;;;;;;;9.60;5.85;;;0.50;99.90;;;;;;7341644;32;20202;-55
2023/03/02 00:19:39;;;;;;;10.25;5.55;;;0.40;99.90;;;;;;7340592;32;20131;-56
2023/03/02 00:23:41;;;;;;;9.95;5.53;;;0.20;99.90;;;;;;7339616;32;20103;-54
2023/03/02 00:27:43;;;;;;;12.25;5.53;;;0.20;99.90;;;;;;7338623;32;20178;-56
2023/03/02 00:31:45;;;;;;;9.05;5.50;;;0.10;99.90;;;;;;7336068;32;20278;-55
2023/03/02 00:35:46;;;;;;;10.82;5.68;;;0.00;99.90;;;;;;7337752;32;20107;-54
2023/03/02 00:39:51;;;;;;;10.02;5.22;;;0.00;99.90;;;;;;7336959;32;20161;-55
2023/03/02 00:43:52;;;;;;;11.27;6.10;;;-0.20;99.90;;;;;;7338293;32;20212;-55
2023/03/02 00:47:54;;;;;;;9.70;5.20;;;-0.30;99.90;;;;;;7331247;32;20281;-55
2023/03/02 00:51:56;;;;;;;9.65;5.22;;;-0.30;99.90;;;;;;7342180;32;20249;-55
2023/03/02 00:55:57;;;;;;;12.40;5.70;;;-0.40;99.90;;;;;;7342011;32;20188;-54
2023/03/02 00:59:59;;;;;;;8.85;5.70;;;-0.50;99.90;;;;;;7332244;32;20114;-57
2023/03/02 01:04:01;;;;;;;10.05;5.43;;;-0.50;99.90;;;;;;7337525;32;20797;-54
2023/03/02 01:08:03;;;;;;;11.18;6.32;;;-0.50;99.90;;;;;;7334937;32;20096;-55
2023/03/02 01:12:08;;;;;;;12.20;5.97;;;-0.50;99.90;;;;;;7331426;32;20496;-55
2023/03/02 01:16:10;;;;;;;13.85;6.35;;;-0.50;99.90;;;;;;7337731;32;20150;-55
2023/03/02 01:20:13;;;;;;;9.27;5.65;;;-0.40;99.90;;;;;;7331365;32;20270;-55
2023/03/02 01:24:15;;;;;;;9.93;5.82;;;-0.30;99.90;;;;;;7328763;32;20179;-55
2023/03/02 01:28:16;;;;;;;12.20;5.90;;;-0.30;99.90;;;;;;7338366;32;20183;-55
2023/03/02 01:32:18;;;;;;;13.02;5.68;;;-0.30;99.90;;;;;;7333018;32;20095;-54
2023/03/02 01:36:21;;;;;;;9.35;5.80;;;-0.30;99.90;;;;;;7330845;32;20618;-55
2023/03/02 01:40:23;;;;;;;13.40;5.75;;;-0.40;99.90;;;;;;7337529;32;20175;-55
2023/03/02 01:44:47;;;;;;;12.02;6.35;;;-0.50;99.90;;;;;;7335297;32;20183;-55
2023/03/02 01:49:01;;;;;;;11.73;5.85;;;-0.50;99.90;;;;;;7338017;32;20572;-55
2023/03/02 01:53:03;;;;;;;14.60;6.45;;;-0.40;99.90;;;;;;7336465;32;20103;-55
2023/03/02 01:57:07;;;;;;;10.50;6.12;;;-0.40;99.90;;;;;;7342492;32;20759;-55
2023/03/02 02:01:14;;;;;;;11.57;6.10;;;-0.40;99.90;;;;;;7341472;32;20123;-55
2023/03/02 02:05:24;;;;;;;11.07;6.25;;;-0.30;99.90;;;;;;7336821;32;22318;-56
2023/03/02 02:09:29;;;;;;;13.77;6.45;;;-0.20;99.90;;;;;;7333516;32;20281;-55
2023/03/02 02:13:31;;;;;;;11.70;6.65;;;-0.10;99.90;;;;;;7336551;32;20482;-55
2023/03/02 02:17:33;;;;;;;13.32;6.03;;;-0.10;99.90;;;;;;7342754;32;20126;-56
2023/03/02 02:21:35;;;;;;;10.52;6.10;;;-0.10;99.90;;;;;;7338159;32;20579;-55
2023/03/02 02:25:52;;;;;;;11.48;6.12;;;-0.10;99.90;;;;;;7337007;32;20321;-55
2023/03/02 02:29:57;;;;;;;14.75;6.32;;;0.00;99.90;;;;;;7335995;32;20175;-55
2023/03/02 02:34:31;;;;;;;11.88;6.28;;;0.00;99.90;;;;;;7332507;32;20118;-55
2023/03/02 02:38:35;;;;;;;10.00;5.85;;;0.00;99.90;;;;;;7329354;32;20099;-56
2023/03/02 02:42:41;;;;;;;11.30;6.03;;;0.00;99.90;;;;;;7338653;32;20099;-55
2023/03/02 02:46:43;;;;;;;12.07;6.35;;;0.00;99.90;;;;;;7344171;32;20361;-55
2023/03/02 02:50:46;;;;;;;11.73;5.82;;;0.10;99.90;;;;;;7338926;32;20568;-55
2023/03/02 02:54:50;;;;;;;12.20;6.53;;;0.10;99.90;;;;;;7341935;32;20252;-55
2023/03/02 02:58:55;;;;;;;12.13;6.55;;;0.10;99.90;;;;;;7342228;32;20696;-55
2023/03/02 03:03:02;;;;;;;13.57;5.75;;;0.10;99.90;;;;;;7341473;32;20243;-55
2023/03/02 03:07:05;;;;;;;10.07;5.43;;;0.10;99.90;;;;;;7334676;32;20133;-56
2023/03/02 03:11:08;;;;;;;10.73;5.93;;;0.10;99.90;;;;;;7337167;32;20152;-55
2023/03/02 03:15:11;;;;;;;11.40;5.72;;;0.10;99.90;;;;;;7336087;32;20178;-55
2023/03/02 03:19:27;;;;;;;9.82;5.30;;;0.10;99.90;;;;;;7339308;32;20103;-56
2023/03/02 03:23:29;;;;;;;11.48;5.57;;;0.10;99.90;;;;;;7336938;32;20095;-56
2023/03/02 03:27:31;;;;;;;9.82;5.68;;;0.10;99.90;;;;;;7338897;32;20114;-55
2023/03/02 03:31:32;;;;;;;12.30;5.18;;;0.00;99.90;;;;;;7335533;32;20457;-55
2023/03/02 03:35:35;;;;;;;10.32;5.28;;;0.00;99.90;;;;;;7341996;32;20103;-55
2023/03/02 03:39:37;;;;;;;9.15;5.30;;;0.10;99.90;;;;;;7341462;32;20520;-56
2023/03/02 03:43:39;;;;;;;8.80;5.45;;;0.00;99.90;;;;;;7339397;32;20247;-55
2023/03/02 03:47:41;;;;;;;9.82;5.22;;;0.00;99.90;;;;;;7333281;32;20096;-55
2023/03/02 03:51:43;;;;;;;10.05;5.35;;;0.00;99.90;;;;;;7334427;32;20543;-55
2023/03/02 03:55:44;;;;;;;11.48;5.43;;;-0.10;99.90;;;;;;7334962;32;20248;-55
2023/03/02 03:59:46;;;;;;;12.65;5.43;;;0.00;99.90;;;;;;7337653;32;20193;-56
2023/03/02 04:03:48;;;;;;;11.23;5.37;;;0.00;99.90;;;;;;7336127;32;20583;-55
2023/03/02 04:07:50;;;;;;;12.05;5.90;;;-0.10;99.90;;;;;;7337810;32;20103;-56
2023/03/02 04:11:54;;;;;;;12.82;6.10;;;-0.20;99.90;;;;;;7344604;32;20132;-55
2023/03/02 04:15:55;;;;;;;11.93;5.43;;;-0.20;99.90;;;;;;7337330;32;20221;-55
2023/03/02 04:19:58;;;;;;;9.70;5.70;;;-0.20;99.90;;;;;;7340299;32;20175;-55
2023/03/02 04:24:00;;;;;;;9.43;5.53;;;-0.20;99.90;;;;;;7341791;32;20119;-55
2023/03/02 04:28:01;;;;;;;9.77;5.22;;;-0.20;99.90;;;;;;7340948;32;20300;-55
2023/03/02 04:32:04;;;;;;;10.75;5.37;;;-0.20;99.90;;;;;;7330491;32;20283;-55
2023/03/02 04:36:06;;;;;;;9.25;4.80;;;-0.30;99.90;;;;;;7336758;32;20463;-55
2023/03/02 04:40:08;;;;;;;10.00;5.37;;;-0.20;99.90;;;;;;7336520;32;20120;-56
2023/03/02 04:44:11;;;;;;;8.93;4.65;;;-0.20;99.90;;;;;;7332331;32;20103;-55
2023/03/02 04:48:13;;;;;;;10.30;5.37;;;-0.20;99.90;;;;;;7336887;32;20126;-55
2023/03/02 04:52:15;;;;;;;10.50;5.12;;;-0.20;99.90;;;;;;7341811;32;20122;-54
2023/03/02 04:56:17;;;;;;;10.82;5.07;;;-0.20;99.90;;;;;;7341090;32;20118;-55
2023/03/02 05:00:19;;;;;;;9.25;5.05;;;0.00;99.90;;;;;;7332264;32;20099;-56
2023/03/02 05:04:22;;;;;;;8.38;5.30;;;-0.10;99.90;;;;;;7335152;32;20226;-55
2023/03/02 05:08:23;;;;;;;8.70;4.72;;;0.00;99.90;;;;;;7328822;32;20122;-55
2023/03/02 05:12:25;;;;;;;11.82;4.90;;;0.10;99.90;;;;;;7334359;32;20138;-55
2023/03/02 05:16:30;;;;;;;10.00;4.53;;;0.30;99.90;;;;;;7335803;32;20157;-55
2023/03/02 05:20:33;;;;;;;9.32;4.70;;;0.40;99.90;;;;;;7341962;32;20598;-56
2023/03/02 05:24:35;;;;;;;9.55;4.50;;;0.30;99.90;;;;;;7334489;32;20262;-55
2023/03/02 05:28:37;;;;;;;9.48;4.85;;;0.30;99.90;;;;;;7331541;32;20380;-54
2023/03/02 05:32:38;;;;;;;9.07;4.80;;;0.30;99.90;;;;;;7336080;32;20582;-54
2023/03/02 05:36:40;;;;;;;9.57;4.57;;;0.20;99.90;;;;;;7344197;32;20507;-54
2023/03/02 05:40:42;;;;;;;9.93;4.43;;;0.30;99.90;;;;;;7340083;32;20111;-55
2023/03/02 05:44:44;;;;;;;7.70;4.47;;;0.20;99.90;;;;;;7340333;32;20604;-56
2023/03/02 05:48:45;;;;;;;9.55;5.00;;;0.20;99.90;;;;;;7332011;32;20190;-53
2023/03/02 05:52:48;;;;;;;8.93;5.15;;;0.10;99.90;;;;;;7343025;32;20281;-55
2023/03/02 05:56:49;;;;;;;9.73;4.68;;;0.10;99.90;;;;;;7342865;32;20103;-54
2023/03/02 06:00:51;;;;;;;10.45;5.37;;;0.10;99.90;;;;;;7337349;32;20665;-54
2023/03/02 06:04:53;;;;;;;10.25;5.43;;;0.00;99.90;;;;;;7332415;32;20174;-55
2023/03/02 06:08:54;;;;;;;9.27;4.82;;;0.00;99.90;;;;;;7335317;32;20182;-55
2023/03/02 06:12:56;;;;;;;10.63;5.40;;;-0.10;99.90;;;;;;7339641;32;20663;-54
2023/03/02 06:16:58;;;;;;;8.35;5.32;;;-0.10;99.90;;;;;;7334265;32;20106;-55
2023/03/02 06:21:00;;;;;;;9.15;5.18;;;-0.10;99.90;;;;;;7334837;32;20180;-55
2023/03/02 06:25:02;;;;;;;11.95;5.90;;;-0.10;99.90;;;;;;7339898;32;20118;-55
2023/03/02 06:29:04;;;;;;;10.20;5.68;;;-0.20;99.90;;;;;;7338509;32;20214;-56
2023/03/02 06:33:06;;;;;;;12.30;5.55;;;-0.20;99.90;;;;;;7339211;32;20193;-56
2023/03/02 06:37:09;;;;;;;8.18;5.03;;;-0.20;99.90;;;;;;7335910;32;20565;-55
2023/03/02 06:41:10;;;;;;;14.85;5.60;;;-0.20;99.90;;;;;;7348664;32;20570;-55
2023/03/02 06:45:12;;;;;;;9.07;5.20;;;-0.20;99.90;;;;;;7341423;32;20194;-55
2023/03/02 06:49:14;;;;;;;9.13;5.37;;;-0.20;99.90;;;;;;7346880;32;20145;-55
2023/03/02 06:53:17;;;;;;;13.18;5.35;;;-0.20;99.90;;;;;;7343579;32;20225;-56
2023/03/02 06:57:19;;;;;;;10.02;4.80;;;-0.20;99.90;;;;;;7337348;32;20131;-55
2023/03/02 07:01:20;;;;;;;9.85;5.20;;;-0.10;99.90;;;;;;7339962;32;20118;-56
2023/03/02 07:05:23;;;;;;;10.43;5.55;;;-0.10;99.90;;;;;;7342701;32;20100;-56
2023/03/02 07:09:25;;;;;;;10.93;4.65;;;-0.10;99.90;;;;;;7343391;32;20103;-56
2023/03/02 07:13:26;;;;;;;10.35;5.35;;;0.00;99.90;;;;;;7342194;32;20525;-55
2023/03/02 07:17:28;;;;;;;8.77;5.15;;;0.10;99.90;;;;;;7341180;32;20167;-55
2023/03/02 07:21:30;;;;;;;10.55;5.12;;;0.20;99.90;;;;;;7329033;32;20250;-55
2023/03/02 07:25:32;;;;;;;12.60;5.78;;;0.20;99.90;;;;;;7344836;32;20122;-56
2023/03/02 07:29:34;;;;;;;8.80;4.93;;;0.30;99.90;;;;;;7336023;32;20130;-55
2023/03/02 07:33:37;;;;;;;9.07;4.50;;;0.30;99.90;;;;;;7333448;32;20274;-54
2023/03/02 07:37:39;;;;;;;8.23;4.55;;;0.40;99.90;;;;;;7332552;32;20115;-54
2023/03/02 07:41:40;;;;;;;7.62;4.70;;;0.40;99.90;;;;;;7344245;32;20178;-55
2023/03/02 07:45:42;;;;;;;10.25;5.07;;;0.50;99.90;;;;;;7334781;32;20104;-56
2023/03/02 07:49:44;;;;;;;9.20;4.87;;;0.50;99.90;;;;;;7349333;32;20178;-56
2023/03/02 07:53:45;;;;;;;9.95;5.37;;;0.60;99.90;;;;;;7338613;32;20232;-55
2023/03/02 07:57:47;;;;;;;10.85;5.35;;;0.60;99.90;;;;;;7334971;32;20102;-55
2023/03/02 08:01:49;;;;;;;15.07;5.45;;;0.70;99.90;;;;;;7339284;32;20100;-54
2023/03/02 08:05:51;;;;;;;10.90;5.37;;;0.80;99.90;;;;;;7340524;32;20107;-55
2023/03/02 08:09:52;;;;;;;9.02;5.07;;;0.80;99.90;;;;;;7339939;32;20125;-55
2023/03/02 08:13:54;;;;;;;10.32;5.80;;;0.90;99.90;;;;;;7338099;32;20094;-55
2023/03/02 08:17:56;;;;;;;11.65;4.62;;;1.10;99.90;;;;;;7344728;32;20682;-56
2023/03/02 08:21:59;;;;;;;13.62;5.35;;;1.10;99.90;;;;;;7333945;32;20174;-55
2023/03/02 08:26:01;;;;;;;8.10;4.55;;;1.20;99.90;;;;;;7329841;32;20173;-55
2023/03/02 08:30:03;;;;;;;8.95;4.47;;;1.40;99.90;;;;;;7341121;32;20171;-56
2023/03/02 08:34:05;;;;;;;10.63;4.93;;;1.50;99.90;;;;;;7335579;32;20115;-56
2023/03/02 08:38:06;;;;;;;10.35;6.07;;;1.60;99.90;;;;;;7336096;32;20505;-56
2023/03/02 08:42:08;;;;;;;9.65;5.70;;;1.70;99.90;;;;;;7342681;32;20104;-55
2023/03/02 08:46:11;;;;;;;11.27;5.65;;;1.90;99.90;;;;;;7336951;32;20223;-55
2023/03/02 08:50:13;;;;;;;9.02;5.43;;;2.00;99.90;;;;;;7337119;32;20099;-56
2023/03/02 08:54:15;;;;;;;9.20;5.90;;;2.10;99.90;;;;;;7340302;32;20231;-56
2023/03/02 08:58:17;;;;;;;10.25;5.32;;;2.20;99.90;;;;;;7336875;32;20211;-57
2023/03/02 09:02:19;;;;;;;10.75;5.32;;;2.30;99.90;;;;;;7338788;32;20508;-56
2023/03/02 09:06:20;;;;;;;13.18;5.97;;;2.50;99.90;;;;;;7341175;32;20132;-56
2023/03/02 09:10:22;;;;;;;7.75;4.90;;;2.60;99.90;;;;;;7330140;32;20096;-57
2023/03/02 09:14:24;;;;;;;12.32;5.15;;;2.90;99.90;;;;;;7336779;32;20218;-57
2023/03/02 09:18:27;;;;;;;9.70;5.80;;;3.40;99.90;;;;;;7335800;32;20244;-56
2023/03/02 09:22:30;;;;;;;8.32;5.25;;;3.90;99.90;;;;;;7338057;32;20126;-57
2023/03/02 09:26:32;;;;;;;12.10;5.82;;;4.30;99.90;;;;;;7333137;32;20103;-58
2023/03/02 09:30:34;;;;;;;8.82;5.22;;;4.80;99.90;;;;;;7343996;32;20126;-57
2023/03/02 09:34:36;;;;;;;12.35;5.97;;;5.60;99.90;;;;;;7337455;32;20178;-57
2023/03/02 09:38:37;;;;;;;11.98;6.05;;;6.70;99.90;;;;;;7331543;32;20643;-54
2023/03/02 09:42:58;;;;;;;9.05;6.05;;;7.00;99.90;;;;;;7331559;32;20642;-56
2023/03/02 09:47:04;;;;;;;12.45;5.35;;;6.70;99.90;;;;;;7327655;32;20210;-55
2023/03/02 09:51:34;;;;;;;11.40;5.78;;;7.30;98.40;;;;;;7329955;32;20201;-55
2023/03/02 09:55:36;;;;;;;11.52;5.82;;;7.30;96.70;;;;;;7343750;32;20226;-55
2023/03/02 09:59:43;;;;;;;11.50;5.93;;;7.80;96.50;;;;;;7333651;32;20217;-55
2023/03/02 10:03:58;;;;;;;11.55;5.57;;;8.30;93.30;;;;;;7339529;32;20308;-55
2023/03/02 10:08:00;;;;;;;13.13;6.57;;;9.30;91.00;;;;;;7333527;32;20107;-55
2023/03/02 10:12:40;;;;;;;10.63;6.60;;;9.80;89.60;;;;;;7340158;32;20470;-59
2023/03/02 10:16:47;;;;;;;12.10;6.85;;;10.70;80.50;;;;;;7339940;32;20202;-55
2023/03/02 10:21:02;;;;;;;11.60;6.10;;;9.70;79.00;;;;;;7330352;32;20108;-55
2023/03/02 10:26:01;;;;;;;9.57;6.18;;;10.50;79.30;;;;;;7333336;32;20183;-56
2023/03/02 10:30:17;;;;;;;9.40;6.20;;;12.00;73.90;;;;;;7276314;32;20164;-57
2023/03/02 10:34:19;;;;;;;7.53;5.87;;;12.70;65.70;;;;;;7314971;32;20127;-56
2023/03/02 10:38:23;;;;;;;11.80;6.55;;;11.90;67.10;;;;;;7334233;32;23936;-55
2023/03/02 10:42:34;;;;;;;10.82;6.32;;;10.10;72.20;;;;;;7329365;32;20107;-56
2023/03/02 10:46:41;;;;;;;9.75;6.03;;;9.40;75.40;;;;;;7337665;32;20220;-55
2023/03/02 10:50:43;;;;;;;9.43;6.30;;;8.70;78.30;;;;;;7329645;32;20126;-55
2023/03/02 10:54:46;;;;;;;9.13;5.60;;;7.70;82.10;;;;;;7336934;32;20482;-55
2023/03/02 10:58:48;;;;;;;8.60;5.57;;;7.10;82.90;;;;;;7340417;32;20151;-56
2023/03/02 11:02:55;;;;;;;11.35;5.53;;;6.60;87.00;;;;;;7343924;32;20692;-54
2023/03/02 11:07:14;;;;;;;9.40;5.60;;;6.60;90.10;;;;;;7346435;32;20104;-56
2023/03/02 11:11:23;;;;;;;7.97;4.95;;;6.70;89.50;;;;;;7333091;32;20169;-56
2023/03/02 11:15:39;;;;;;;9.18;5.93;;;6.70;88.20;;;;;;7340836;32;20855;-55
2023/03/02 11:19:41;;;;;;;11.18;5.22;;;6.80;89.50;;;;;;7336348;32;20454;-55
2023/03/02 11:23:56;;;;;;;10.65;5.37;;;6.80;88.40;;;;;;7332979;32;20395;-56
2023/03/02 11:28:21;;;;;;;7.18;5.20;;;6.80;87.70;;;;;;7339673;32;20124;-56
2023/03/02 11:32:47;;;;;;;10.55;5.18;;;6.90;87.90;;;;;;7335066;32;20113;-56
2023/03/02 11:37:24;;;;;;;8.55;4.90;;;6.80;86.50;;;;;;7336851;32;20119;-56
2023/03/02 11:41:33;;;;;;;8.35;5.18;;;7.00;86.60;;;;;;7334468;32;20144;-55
2023/03/02 11:45:41;;;;;;;7.53;5.30;;;7.20;86.70;;;;;;7337368;32;20164;-57
2023/03/02 11:49:59;;;;;;;9.02;5.30;;;7.30;85.50;;;;;;7332078;32;20962;-56
2023/03/02 11:54:05;;;;;;;13.20;5.65;;;7.50;86.90;;;;;;7334576;32;20188;-56
2023/03/02 11:58:19;;;;;;;10.27;5.28;;;8.10;83.90;;;;;;7343636;32;20473;-56
2023/03/02 12:02:21;;;;;;;7.15;5.18;;;8.80;81.30;;;;;;7337340;32;20146;-57
2023/03/02 12:06:26;;;;;;;7.95;5.22;;;9.20;81.20;;;;;;7334265;32;20126;-56
2023/03/02 12:10:38;;;;;;;9.18;5.35;;;10.00;76.50;;;;;;7336709;32;20122;-55
2023/03/02 12:14:42;;;;;;;9.98;4.85;;;10.30;71.40;;;;;;7339466;32;20540;-56
2023/03/02 12:18:51;;;;;;;7.85;5.47;;;10.80;71.60;;;;;;7347312;32;20107;-57
2023/03/02 12:23:05;;;;;;;10.25;5.03;;;11.70;68.20;;;;;;7344277;32;20301;-56
2023/03/02 12:27:24;;;;;;;7.00;5.40;;;12.40;64.00;;;;;;7343562;32;20182;-55
2023/03/02 12:31:45;;;;;;;10.27;5.97;;;12.60;61.20;;;;;;7337914;32;20148;-56
2023/03/02 12:35:50;;;;;;;8.63;5.50;;;13.30;59.10;;;;;;7335863;32;20312;-56
2023/03/02 12:40:07;;;;;;;9.25;5.20;;;12.90;58.00;;;;;;7341101;32;20157;-56
2023/03/02 12:44:42;;;;;;;8.50;5.33;;;13.30;56.90;;;;;;7334451;32;20114;-56
2023/03/02 12:48:45;;;;;;;8.02;4.93;;;13.20;56.00;;;;;;7347525;32;20100;-56
2023/03/02 12:52:57;;;;;;;8.75;5.05;;;13.10;56.40;;;;;;7330653;32;20213;-57
2023/03/02 12:57:19;;;;;;;9.20;4.90;;;13.60;55.90;;;;;;7337395;32;20119;-57
2023/03/02 13:01:29;;;;;;;6.47;4.82;;;14.00;54.30;;;;;;7341518;32;20164;-57
2023/03/02 13:05:33;;;;;;;8.32;4.60;;;14.20;53.60;;;;;;7335837;32;20104;-58
2023/03/02 13:09:36;;;;;;;8.15;4.80;;;14.20;53.50;;;;;;7340344;32;20794;-57
2023/03/02 13:13:43;;;;;;;6.70;5.07;;;14.00;54.40;;;;;;7336979;32;20260;-58
2023/03/02 13:17:53;;;;;;;10.23;5.43;;;14.40;52.60;;;;;;7335650;32;20241;-57
2023/03/02 13:21:55;;;;;;;10.25;4.70;;;14.10;54.20;;;;;;7337129;32;20127;-57
2023/03/02 13:26:00;;;;;;;6.50;4.65;;;14.60;53.20;;;;;;7334483;32;20718;-57
2023/03/02 13:30:30;;;;;;;9.70;5.25;;;15.00;51.50;;;;;;7334010;32;20107;-57
2023/03/02 13:34:34;;;;;;;6.35;4.55;;;14.50;51.60;;;;;;7328855;32;20153;-57
2023/03/02 13:38:37;;;;;;;6.78;4.47;;;14.40;52.00;;;;;;7333754;32;20242;-57
2023/03/02 13:42:40;;;;;;;6.87;4.45;;;14.80;52.40;;;;;;7336470;32;20504;-59
2023/03/02 13:46:41;;;;;;;6.03;4.32;;;15.00;51.80;;;;;;7338607;32;20217;-57
2023/03/02 13:51:13;;;;;;;10.75;4.95;;;15.40;50.50;;;;;;7332711;32;20099;-57
2023/03/02 13:55:17;;;;;;;7.40;4.45;;;15.30;49.60;;;;;;7334172;32;20209;-55
2023/03/02 13:59:21;;;;;;;6.65;4.62;;;15.50;48.50;;;;;;7328305;32;20213;-56
2023/03/02 14:03:29;;;;;;;9.95;5.00;;;15.50;49.20;;;;;;7337197;32;20123;-56
2023/03/02 14:07:30;;;;;;;5.78;4.53;;;16.30;48.60;;;;;;7329123;32;20248;-56
2023/03/02 14:11:39;;;;;;;6.90;4.47;;;15.30;48.40;;;;;;7332434;32;20541;-57
2023/03/02 14:15:46;;;;;;;6.93;4.03;;;15.40;49.40;;;;;;7338726;32;20186;-57
2023/03/02 14:19:51;;;;;;;7.00;4.10;;;15.40;47.80;;;;;;7335055;32;20609;-56
2023/03/02 14:23:54;;;;;;;6.78;4.18;;;15.00;49.20;;;;;;7338154;32;20553;-56
2023/03/02 14:27:55;;;;;;;7.75;3.92;;;14.50;48.90;;;;;;7327939;32;20695;-57
2023/03/02 14:32:02;;;;;;;5.35;3.87;;;15.00;49.00;;;;;;7332548;32;20196;-56
2023/03/02 14:36:05;;;;;;;5.65;3.97;;;15.30;48.40;;;;;;7337702;32;20129;-55
2023/03/02 14:40:20;;;;;;;7.93;3.90;;;14.30;49.20;;;;;;7333018;32;20250;-53
2023/03/02 14:44:22;;;;;;;4.47;3.45;;;14.20;49.60;;;;;;7337959;32;20851;-55
2023/03/02 14:48:24;;;;;;;7.05;3.83;;;13.60;50.50;;;;;;7341832;32;20203;-55
2023/03/02 14:52:29;;;;;;;6.35;4.00;;;12.20;53.40;;;;;;7345162;32;20182;-55
2023/03/02 14:56:31;;;;;;;5.50;3.60;;;11.20;55.70;;;;;;7334306;32;20107;-54
2023/03/02 15:00:33;;;;;;;7.10;3.90;;;10.60;57.80;;;;;;7341028;32;20130;-55
2023/03/02 15:04:35;;;;;;;7.03;3.33;;;10.30;59.70;;;;;;7335510;32;20225;-55
2023/03/02 15:08:37;;;;;;;7.70;3.75;;;10.10;60.90;;;;;;7335978;32;20214;-55
2023/03/02 15:12:38;;;;;;;6.25;3.58;;;10.10;61.40;;;;;;7337653;32;20585;-55
2023/03/02 15:16:41;;;;;;;8.10;3.35;;;9.80;62.40;;;;;;7336351;32;20096;-55
2023/03/02 15:20:43;;;;;;;8.23;3.78;;;9.70;62.20;;;;;;7339245;32;20375;-55
2023/03/02 15:24:44;;;;;;;5.97;3.55;;;9.50;62.60;;;;;;7345766;32;20191;-55
2023/03/02 15:28:50;;;;;;;6.18;3.35;;;9.50;63.90;;;;;;7336544;32;20296;-54
2023/03/02 15:32:53;;;;;;;8.02;4.15;;;9.50;64.90;;;;;;7331428;32;20104;-54
2023/03/02 15:36:55;;;;;;;7.22;3.85;;;9.40;66.20;;;;;;7330268;32;20126;-55
2023/03/02 15:40:56;;;;;;;4.97;3.40;;;9.40;66.30;;;;;;7337840;32;20502;-55
2023/03/02 15:44:58;;;;;;;8.30;4.40;;;9.30;66.50;;;;;;7332324;32;20153;-55
2023/03/02 15:49:00;;;;;;;6.72;3.85;;;9.40;68.80;;;;;;7339703;32;20186;-55
2023/03/02 15:53:01;;;;;;;6.03;3.85;;;9.50;67.80;;;;;;7334624;32;20423;-55
2023/03/02 15:57:03;;;;;;;6.75;3.97;;;9.20;69.00;;;;;;7333816;32;20157;-55
2023/03/02 16:01:07;;;;;;;5.43;3.83;;;9.10;70.10;;;;;;7336469;32;20113;-55
2023/03/02 16:05:09;;;;;;;9.45;3.78;;;9.10;71.50;;;;;;7336345;32;20103;-55
2023/03/02 16:09:11;;;;;;;10.27;3.78;;;9.00;70.50;;;;;;7343641;32;20122;-56
2023/03/02 16:13:13;;;;;;;4.70;3.42;;;8.80;71.10;;;;;;7340825;32;20100;-56
2023/03/02 16:17:16;;;;;;;6.87;4.55;;;8.80;72.00;;;;;;7331205;32;20146;-56
2023/03/02 16:21:18;;;;;;;8.55;5.00;;;8.60;73.00;;;;;;7329221;32;20576;-56
2023/03/02 16:25:20;;;;;;;10.55;5.78;;;8.40;77.50;;;;;;7332646;32;20422;-56
2023/03/02 16:29:23;;;;;;;9.85;5.87;;;8.40;81.70;;;;;;7331857;32;20391;-56
2023/03/02 16:33:24;;;;;;;11.02;6.55;;;8.30;85.80;;;;;;7338211;32;20104;-56
2023/03/02 16:37:26;;;;;;;7.82;6.15;;;8.20;90.00;;;;;;7337959;32;20387;-56
2023/03/02 16:41:28;;;;;;;10.20;6.53;;;8.20;91.60;;;;;;7335773;32;20178;-56
2023/03/02 16:45:29;;;;;;;13.82;7.97;;;8.00;93.00;;;;;;7336746;32;20596;-56
2023/03/02 16:49:31;;;;;;;16.25;10.27;;;7.80;95.10;;;;;;7332714;32;20127;-55
2023/03/02 16:53:33;;;;;;;17.98;9.75;;;7.60;97.20;;;;;;7328689;32;20110;-56
2023/03/02 16:57:35;;;;;;;11.30;7.68;;;7.50;99.10;;;;;;7333445;32;20095;-56
2023/03/02 17:01:36;;;;;;;17.08;8.93;;;7.40;99.90;;;;;;7338481;32;20248;-56
2023/03/02 17:05:41;;;;;;;11.52;7.80;;;7.30;99.90;;;;;;7336851;32;20593;-55
2023/03/02 17:09:43;;;;;;;13.52;9.15;;;7.00;99.90;;;;;;7332608;32;20343;-56
2023/03/02 17:13:45;;;;;;;14.60;8.75;;;6.90;99.90;;;;;;7332444;32;20099;-56
2023/03/02 17:17:46;;;;;;;15.63;9.70;;;6.70;99.90;;;;;;7335627;32;20096;-55
2023/03/02 17:21:48;;;;;;;14.65;8.43;;;6.60;99.90;;;;;;7336723;32;20206;-56
2023/03/02 17:25:50;;;;;;;14.25;9.40;;;6.40;99.90;;;;;;7329519;32;20544;-54
2023/03/02 17:29:53;;;;;;;15.98;9.75;;;6.40;99.90;;;;;;7334542;32;20096;-54
2023/03/02 17:33:55;;;;;;;13.57;8.63;;;6.20;99.90;;;;;;7335809;32;20343;-54
2023/03/02 17:37:56;;;;;;;16.75;10.50;;;6.10;99.90;;;;;;7334378;32;20508;-55
2023/03/02 17:41:58;;;;;;;18.40;9.27;;;6.10;99.90;;;;;;7333748;32;20668;-55
2023/03/02 17:46:12;;;;;;;14.13;8.48;;;6.00;99.90;;;;;;7337352;32;20511;-55
2023/03/02 17:50:14;;;;;;;15.63;9.18;;;5.80;99.90;;;;;;7342523;32;20111;-54
2023/03/02 17:54:16;;;;;;;14.80;9.25;;;5.70;99.90;;;;;;7334701;32;20129;-56
2023/03/02 17:58:18;;;;;;;18.05;10.32;;;5.60;99.90;;;;;;7339717;32;20509;-56
2023/03/02 18:02:19;;;;;;;20.10;12.45;;;5.50;99.90;;;;;;7333484;32;20575;-56
2023/03/02 18:06:22;;;;;;;24.17;13.02;;;5.50;99.90;;;;;;7331847;32;20599;-56
2023/03/02 18:10:23;;;;;;;21.95;13.82;;;5.40;99.90;;;;;;7344968;32;20584;-55
2023/03/02 18:14:27;;;;;;;20.42;13.88;;;5.40;99.90;;;;;;7345603;32;20099;-56
2023/03/02 18:18:28;;;;;;;20.77;12.27;;;5.30;99.90;;;;;;7343169;32;20246;-54
2023/03/02 18:22:30;;;;;;;18.02;11.00;;;5.40;99.90;;;;;;7340634;32;20095;-54
2023/03/02 18:26:32;;;;;;;17.02;10.20;;;5.20;99.90;;;;;;7339276;32;20216;-54
2023/03/02 18:30:33;;;;;;;17.83;10.63;;;5.20;99.90;;;;;;7335939;32;20209;-54
2023/03/02 18:34:35;;;;;;;19.73;10.55;;;5.10;99.90;;;;;;7338050;32;20524;-54
2023/03/02 18:38:37;;;;;;;18.58;11.23;;;5.10;99.90;;;;;;7336549;32;20213;-54
2023/03/02 18:42:39;;;;;;;18.95;11.45;;;5.10;99.90;;;;;;7340058;32;20456;-54
2023/03/02 18:46:40;;;;;;;24.67;13.80;;;5.10;99.90;;;;;;7340092;32;20169;-54
2023/03/02 18:50:42;;;;;;;23.98;13.80;;;5.10;99.90;;;;;;7339887;32;20243;-53
2023/03/02 18:54:46;;;;;;;24.70;13.88;;;5.00;99.90;;;;;;7338534;32;20191;-54
2023/03/02 18:58:48;;;;;;;23.58;13.45;;;4.90;99.90;;;;;;7335744;32;20162;-54
2023/03/02 19:02:50;;;;;;;21.83;13.55;;;4.80;99.90;;;;;;7335705;32;20489;-54
2023/03/02 19:06:54;;;;;;;23.15;13.98;;;4.60;99.90;;;;;;7336720;32;20099;-54
2023/03/02 19:10:56;;;;;;;23.95;14.60;;;4.60;99.90;;;;;;7343398;32;20295;-55
2023/03/02 19:14:58;;;;;;;26.37;14.77;;;4.60;99.90;;;;;;7337011;32;20130;-54
2023/03/02 19:18:59;;;;;;;24.30;15.32;;;4.50;99.90;;;;;;7337212;32;20095;-55
2023/03/02 19:23:01;;;;;;;24.73;14.60;;;4.30;99.90;;;;;;7333642;32;20241;-55
2023/03/02 19:27:03;;;;;;;23.15;14.32;;;4.30;99.90;;;;;;7335400;32;20103;-54
2023/03/02 19:31:07;;;;;;;24.95;15.57;;;4.10;99.90;;;;;;7333663;32;20560;-54
2023/03/02 19:35:13;;;;;;;23.08;13.80;;;4.10;99.90;;;;;;7337895;32;20200;-55
2023/03/02 19:39:15;;;;;;;26.25;15.23;;;4.10;99.90;;;;;;7339754;32;20476;-54
2023/03/02 19:43:19;;;;;;;25.52;14.73;;;3.90;99.90;;;;;;7328257;32;20119;-54
2023/03/02 19:47:20;;;;;;;25.37;15.10;;;3.90;99.90;;;;;;7331759;32;20150;-54
2023/03/02 19:51:22;;;;;;;27.52;15.93;;;3.80;99.90;;;;;;7336159;32;20149;-53
2023/03/02 19:55:25;;;;;;;27.50;16.12;;;3.70;99.90;;;;;;7334252;32;20248;-53
2023/03/02 19:59:29;;;;;;;27.67;16.37;;;3.50;99.90;;;;;;7336785;32;20218;-53
2023/03/02 20:03:31;;;;;;;29.25;17.08;;;3.50;99.90;;;;;;7334449;32;20325;-54
2023/03/02 20:07:33;;;;;;;25.52;15.90;;;3.50;99.90;;;;;;7339250;32;20221;-54
2023/03/02 20:11:37;;;;;;;26.62;16.37;;;3.40;99.90;;;;;;7333690;32;20103;-54
2023/03/02 20:15:41;;;;;;;30.35;16.85;;;3.30;99.90;;;;;;7334589;32;20202;-54
2023/03/02 20:19:43;;;;;;;30.02;17.90;;;3.20;99.90;;;;;;7334353;32;20285;-54
2023/03/02 20:23:48;;;;;;;26.35;16.70;;;3.20;99.90;;;;;;7337275;32;20682;-54
2023/03/02 20:27:50;;;;;;;31.73;17.62;;;3.10;99.90;;;;;;7333249;32;20227;-54
2023/03/02 20:31:52;;;;;;;31.98;17.30;;;3.00;99.90;;;;;;7337326;32;20747;-54
2023/03/02 20:35:54;;;;;;;30.88;18.17;;;2.90;99.90;;;;;;7331656;32;20107;-55
2023/03/02 20:39:56;;;;;;;29.77;17.10;;;2.90;99.90;;;;;;7331229;32;20505;-54
2023/03/02 20:43:58;;;;;;;28.52;18.12;;;2.80;99.90;;;;;;7331896;32;20175;-54
2023/03/02 20:48:00;;;;;;;31.52;18.05;;;2.80;99.90;;;;;;7337241;32;20573;-54
2023/03/02 20:52:04;;;;;;;35.85;20.80;;;2.70;99.90;;;;;;7333742;32;20112;-55
2023/03/02 20:56:06;;;;;;;38.00;22.05;;;2.60;99.90;;;;;;7332030;32;20103;-55
2023/03/02 21:00:12;;;;;;;31.80;19.73;;;2.50;99.90;;;;;;7333060;32;20134;-55
2023/03/02 21:04:14;;;;;;;31.58;19.42;;;2.50;99.90;;;;;;7339548;32;20514;-55
2023/03/02 21:08:16;;;;;;;35.88;21.15;;;2.40;99.90;;;;;;7333306;32;20144;-54
2023/03/02 21:12:18;;;;;;;38.75;22.40;;;2.30;99.90;;;;;;7339884;32;20104;-54